Time;durP1;ratioP1;P1;durP2;ratioP2;P2;SDS_P1;SDS_P2;PMS_P1;PMS_P2;Temp;Humidity;BMP_temperature;BMP_pressure;BME280_temperature;BME280_humidity;BME280_pressure;Samples;Min_cycle;Max_cycle;Signal;HPM_P1;HPM_P2
2022/03/01 00:01:54;;;;;;;;;;;1.10;52.60;;;-0.70;48.45;97256.53;4970769;28;19922;-72
2022/03/01 00:04:20;;;;;;;;;;;1.10;52.60;;;-0.72;48.09;97255.78;4973011;28;19922;-73
2022/03/01 00:06:46;;;;;;;;;;;1.10;52.30;;;-0.74;48.67;97260.22;4970090;28;20388;-74
2022/03/01 00:09:11;;;;;;;;;;;1.00;52.40;;;-0.76;48.21;97250.91;4970020;28;19922;-73
2022/03/01 00:11:38;;;;;;;;;;;1.00;52.30;;;-0.75;48.25;97250.81;4970198;28;19961;-73
2022/03/01 00:14:04;;;;;;;;;;;1.10;52.20;;;-0.76;48.08;97246.56;4971548;28;20286;-74
2022/03/01 00:16:30;;;;;;;;;;;1.00;51.90;;;-0.75;47.65;97248.22;4971013;28;19976;-72
2022/03/01 00:18:57;;;;;;;;;;;1.10;52.10;;;-0.78;48.69;97248.41;4969926;28;19922;-72
2022/03/01 00:21:23;;;;;;;;;;;1.00;52.10;;;-0.82;48.40;97252.09;4986116;28;19949;-71
2022/03/01 00:23:49;;;;;;;;;;;0.90;52.10;;;-0.85;47.79;97246.28;4954461;28;20360;-72
2022/03/01 00:26:14;;;;;;;;;;;0.90;51.70;;;-0.87;47.74;97248.97;4945150;28;19922;-73
2022/03/01 00:28:40;;;;;;;;;;;0.90;51.90;;;-0.92;48.35;97253.53;4953598;28;19964;-73
2022/03/01 00:31:06;;;;;;;;;;;0.90;52.30;;;-0.94;48.70;97245.88;4970864;28;19918;-73
2022/03/01 00:33:31;;;;;;;;;;;0.90;52.30;;;-0.97;48.05;97243.50;4969779;28;19922;-72
2022/03/01 00:35:57;;;;;;;;;;;0.80;52.00;;;-0.99;48.44;97240.16;4969150;28;19934;-70
2022/03/01 00:38:23;;;;;;;;;;;0.80;52.10;;;-1.00;48.21;97240.25;4969928;28;19929;-73
2022/03/01 00:40:49;;;;;;;;;;;0.80;52.00;;;-1.02;48.56;97236.94;4953288;28;19922;-72
2022/03/01 00:43:14;;;;;;;;;;;0.80;52.50;;;-1.01;48.54;97233.44;4970630;28;20240;-72
2022/03/01 00:45:40;;;;;;;;;;;0.80;52.70;;;-1.02;49.06;97239.53;4964454;28;20365;-71
2022/03/01 00:48:06;;;;;;;;;;;0.80;52.80;;;-1.04;48.92;97231.03;4964582;28;19973;-71
2022/03/01 00:50:31;;;;;;;;;;;0.80;52.90;;;-1.08;48.93;97225.22;4953968;28;19922;-72
2022/03/01 00:52:57;;;;;;;;;;;0.70;53.20;;;-1.12;49.92;97222.91;4957080;28;19926;-72
2022/03/01 00:55:23;;;;;;;;;;;0.70;53.60;;;-1.16;48.88;97222.25;4968080;28;19922;-72
2022/03/01 00:57:48;;;;;;;;;;;0.60;53.40;;;-1.18;49.17;97218.09;4969732;28;19930;-72
2022/03/01 01:00:14;;;;;;;;;;;0.60;53.10;;;-1.20;49.58;97213.03;4969081;28;19926;-72
2022/03/01 01:02:40;;;;;;;;;;;0.60;53.40;;;-1.20;48.38;97219.94;4970946;28;19926;-72
2022/03/01 01:05:06;;;;;;;;;;;0.60;53.20;;;-1.23;49.44;97215.78;4968415;28;19922;-73
2022/03/01 01:07:32;;;;;;;;;;;0.60;53.20;;;-1.24;49.08;97219.28;4968240;28;19968;-72
2022/03/01 01:09:57;;;;;;;;;;;0.60;53.10;;;-1.28;49.36;97203.16;4970615;28;20349;-72
2022/03/01 01:12:23;;;;;;;;;;;0.60;53.30;;;-1.27;49.00;97215.13;4970019;28;19918;-72
2022/03/01 01:14:49;;;;;;;;;;;0.60;53.20;;;-1.29;49.01;97210.97;4970586;28;20343;-72
2022/03/01 01:17:14;;;;;;;;;;;0.50;53.10;;;-1.32;47.77;97216.31;4984814;28;19926;-72
2022/03/01 01:19:40;;;;;;;;;;;0.50;52.80;;;-1.35;48.92;97222.50;4953519;28;19922;-70
2022/03/01 01:24:50;;;;;;;;;;;0.40;52.90;;;-1.41;48.72;97222.81;4962072;28;20013;-72
2022/03/01 01:27:16;;;;;;;;;;;0.40;52.80;;;-1.44;48.73;97217.00;4963096;28;20402;-71
2022/03/01 01:29:41;;;;;;;;;;;0.30;52.80;;;-1.45;48.89;97215.34;4954989;28;19922;-72
2022/03/01 01:32:08;;;;;;;;;;;0.30;52.80;;;-1.50;48.91;97213.03;4968754;28;20276;-69
2022/03/01 01:34:33;;;;;;;;;;;0.30;53.00;;;-1.53;49.66;97218.38;4970285;28;19922;-71
2022/03/01 01:36:59;;;;;;;;;;;0.30;53.10;;;-1.53;48.55;97202.91;4969316;28;19922;-72
2022/03/01 01:39:25;;;;;;;;;;;0.30;52.90;;;-1.54;48.99;97211.56;4970185;28;20705;-72
2022/03/01 01:41:50;;;;;;;;;;;0.30;53.10;;;-1.58;49.34;97204.91;4969953;28;19918;-72
2022/03/01 01:44:16;;;;;;;;;;;0.20;53.00;;;-1.60;49.34;97196.41;4968733;28;19976;-73
2022/03/01 01:46:42;;;;;;;;;;;0.20;53.10;;;-1.62;49.71;97200.81;4985436;28;19929;-73
2022/03/01 01:49:08;;;;;;;;;;;0.20;53.30;;;-1.63;49.85;97201.75;4969604;28;19926;-73
2022/03/01 01:51:33;;;;;;;;;;;0.20;53.50;;;-1.65;49.75;97201.00;4951742;28;19923;-73
2022/03/01 01:53:59;;;;;;;;;;;0.10;53.70;;;-1.69;50.31;97196.94;4963594;28;20414;-73
2022/03/01 01:56:25;;;;;;;;;;;0.10;53.60;;;-1.70;49.93;97206.44;4960273;28;19922;-73
2022/03/01 01:58:50;;;;;;;;;;;0.10;53.80;;;-1.71;50.09;97204.75;4970712;28;19926;-73
2022/03/01 02:01:16;;;;;;;;;;;0.10;53.90;;;-1.73;50.07;97198.88;4968940;28;19926;-73
2022/03/01 02:03:42;;;;;;;;;;;0.10;54.20;;;-1.74;50.58;97198.97;4984875;28;19926;-73
2022/03/01 02:06:07;;;;;;;;;;;0.10;54.20;;;-1.79;50.18;97200.97;4971832;28;19926;-72
2022/03/01 02:08:33;;;;;;;;;;;0.00;54.40;;;-1.80;49.97;97200.13;4956313;28;19922;-73
2022/03/01 02:10:59;;;;;;;;;;;0.10;54.60;;;-1.80;50.41;97194.97;4971858;28;19926;-72
2022/03/01 02:13:25;;;;;;;;;;;0.00;54.20;;;-1.83;49.94;97191.72;4972986;28;19932;-73
2022/03/01 02:15:50;;;;;;;;;;;0.10;54.20;;;-1.86;50.60;97188.41;4972331;28;19922;-73
2022/03/01 02:18:17;;;;;;;;;;;0.00;54.30;;;-1.87;50.39;97185.91;4956423;28;19980;-73
2022/03/01 02:20:43;;;;;;;;;;;0.00;54.60;;;-1.89;50.53;97178.25;4972518;28;19922;-73
2022/03/01 02:23:09;;;;;;;;;;;0.00;54.70;;;-1.91;50.79;97172.34;4971683;28;20370;-72
2022/03/01 02:25:34;;;;;;;;;;;0.00;55.10;;;-1.94;50.63;97171.69;4971844;28;19922;-71
2022/03/01 02:28:00;;;;;;;;;;;0.00;55.40;;;-1.99;51.45;97164.22;4971338;28;19922;-71
2022/03/01 02:30:26;;;;;;;;;;;0.00;55.30;;;-2.02;50.73;97161.00;4973024;28;19922;-71
2022/03/01 02:32:52;;;;;;;;;;;-3276.70;55.20;;;-2.01;52.01;97172.97;4969632;28;19957;-70
2022/03/01 02:35:17;;;;;;;;;;;0.00;55.50;;;-2.03;51.13;97167.91;4971174;28;20278;-71
2022/03/01 02:37:43;;;;;;;;;;;0.00;55.30;;;-2.06;51.24;97173.19;4971919;28;19972;-71
2022/03/01 02:40:09;;;;;;;;;;;-3276.70;55.30;;;-2.11;51.55;97169.22;4972815;28;19930;-71
2022/03/01 02:42:35;;;;;;;;;;;-3276.60;55.80;;;-2.12;51.46;97173.53;4972372;28;19925;-72
2022/03/01 02:45:01;;;;;;;;;;;-3276.60;55.70;;;-2.16;51.56;97159.16;4954776;28;20392;-71
2022/03/01 02:47:27;;;;;;;;;;;-3276.60;55.90;;;-2.19;51.50;97167.06;4990736;28;19922;-72
2022/03/01 02:49:52;;;;;;;;;;;-3276.60;56.10;;;-2.22;51.93;97167.25;4976059;28;19922;-72
2022/03/01 02:52:18;;;;;;;;;;;-3276.50;56.30;;;-2.23;51.94;97166.41;4989245;28;19930;-73
2022/03/01 02:54:44;;;;;;;;;;;-3276.50;56.40;;;-2.24;51.73;97171.66;4987994;28;19933;-72
2022/03/01 02:57:09;;;;;;;;;;;-3276.50;56.20;;;-2.27;51.35;97166.66;4971181;28;19922;-72
2022/03/01 02:59:35;;;;;;;;;;;-3276.50;56.20;;;-2.31;52.38;97166.00;4971474;28;19982;-71
2022/03/01 03:02:01;;;;;;;;;;;-3276.50;56.40;;;-2.32;51.91;97156.59;4955144;28;20005;-71
2022/03/01 03:04:26;;;;;;;;;;;-3276.40;56.60;;;-2.36;51.89;97156.84;4971192;28;19937;-72
2022/03/01 03:06:52;;;;;;;;;;;-3276.40;56.30;;;-2.39;51.39;97157.03;4971342;28;20297;-72
2022/03/01 03:09:18;;;;;;;;;;;-3276.30;56.40;;;-2.43;51.81;97151.22;4970587;28;19926;-72
2022/03/01 03:11:44;;;;;;;;;;;-3276.30;56.70;;;-2.45;51.88;97154.78;4955014;28;19929;-71
2022/03/01 03:14:09;;;;;;;;;;;-3276.30;56.80;;;-2.47;52.04;97147.16;4968725;28;20009;-72
2022/03/01 03:16:35;;;;;;;;;;;-3276.30;57.00;;;-2.49;52.66;97154.97;4971697;28;20371;-71
2022/03/01 03:19:01;;;;;;;;;;;-3276.30;57.00;;;-2.48;53.11;97153.22;4955095;28;19922;-72
2022/03/01 03:21:26;;;;;;;;;;;-3276.30;57.10;;;-2.51;52.45;97151.59;4972751;28;19929;-72
2022/03/01 03:23:52;;;;;;;;;;;-3276.20;57.00;;;-2.52;52.41;97144.78;4955084;28;20357;-72
2022/03/01 03:26:18;;;;;;;;;;;-3276.20;56.80;;;-2.53;52.87;97143.13;4986880;28;19930;-71
2022/03/01 03:28:43;;;;;;;;;;;-3276.30;57.00;;;-2.55;52.13;97144.13;4987712;28;19919;-72
2022/03/01 03:31:09;;;;;;;;;;;-3276.20;57.00;;;-2.58;53.23;97136.59;4938140;28;19972;-72
2022/03/01 03:33:35;;;;;;;;;;;-3276.20;57.30;;;-2.60;52.80;97131.50;4989924;28;20558;-72
2022/03/01 03:36:00;;;;;;;;;;;-3276.20;57.30;;;-2.64;52.50;97130.03;4970426;28;19984;-71
2022/03/01 03:38:26;;;;;;;;;;;-3276.10;57.30;;;-2.64;52.61;97127.44;4971242;28;19937;-73
2022/03/01 03:40:52;;;;;;;;;;;-3276.10;57.60;;;-2.66;52.70;97129.28;4987107;28;20065;-70
2022/03/01 03:43:18;;;;;;;;;;;-3276.10;57.60;;;-2.69;52.91;97119.16;4987027;28;20071;-72
2022/03/01 03:45:44;;;;;;;;;;;-3276.10;57.70;;;-2.69;52.57;97115.75;4986954;28;19922;-73
2022/03/01 03:48:09;;;;;;;;;;;-3276.10;57.40;;;-2.72;53.12;97127.00;4971008;28;20378;-72
2022/03/01 03:50:35;;;;;;;;;;;-3276.00;57.50;;;-2.73;52.15;97111.63;4971973;28;19922;-72
2022/03/01 03:53:01;;;;;;;;;;;-3276.00;57.10;;;-2.73;51.53;97120.19;4954032;28;19997;-72
2022/03/01 03:55:26;;;;;;;;;;;-3276.00;57.20;;;-2.74;52.99;97128.84;4971595;28;20421;-72
2022/03/01 03:57:52;;;;;;;;;;;-3276.00;57.20;;;-2.75;53.03;97122.03;4970375;28;19926;-72
2022/03/01 04:00:18;;;;;;;;;;;-3276.00;57.10;;;-2.74;52.24;97120.28;4952525;28;19926;-72
2022/03/01 04:02:44;;;;;;;;;;;-3276.00;57.20;;;-2.79;52.63;97115.38;4970995;28;19925;-72
2022/03/01 04:05:12;;;;;;;;;;;-3276.00;57.40;;;-2.81;53.31;97122.34;4954158;28;19933;-72
2022/03/01 04:07:42;;;;;;;;;;;-3276.00;57.50;;;-2.78;53.39;97122.19;4986310;28;19933;-72
2022/03/01 04:10:08;;;;;;;;;;;-3276.00;57.50;;;-2.82;53.17;97115.56;4970460;28;19922;-72
2022/03/01 04:12:34;;;;;;;;;;;-3276.00;57.70;;;-2.81;53.54;97117.22;4970832;28;20363;-72
2022/03/01 04:15:00;;;;;;;;;;;-3276.00;57.90;;;-2.84;52.68;97119.94;4985939;28;19922;-72
2022/03/01 04:17:26;;;;;;;;;;;-3276.00;58.40;;;-2.84;54.69;97117.38;4970550;28;19930;-71
2022/03/01 04:19:52;;;;;;;;;;;-3276.00;60.10;;;-2.85;53.92;97116.56;4971248;28;19945;-71
2022/03/01 04:22:17;;;;;;;;;;;-3275.90;58.10;;;-2.89;53.91;97115.06;4953485;28;19926;-71
2022/03/01 04:24:43;;;;;;;;;;;-3275.90;58.10;;;-2.90;53.38;97117.72;4953861;28;20408;-71
2022/03/01 04:27:09;;;;;;;;;;;-3275.90;58.20;;;-2.92;53.68;97119.53;4982207;28;19929;-71
2022/03/01 04:29:35;;;;;;;;;;;-3275.90;58.30;;;-2.95;53.23;97115.34;4968706;28;19922;-69
2022/03/01 04:32:01;;;;;;;;;;;-3275.80;58.10;;;-2.99;54.48;97118.19;4971055;28;20290;-72
2022/03/01 04:34:27;;;;;;;;;;;-3275.80;58.30;;;-3.00;53.72;97116.53;4950543;28;19950;-71
2022/03/01 04:36:55;;;;;;;;;;;-3275.70;58.40;;;-3.00;53.61;97119.94;4959619;28;19922;-70
2022/03/01 04:39:21;;;;;;;;;;;-3275.80;58.50;;;-2.99;54.45;97113.88;4945305;28;20017;-71
2022/03/01 04:41:46;;;;;;;;;;;-3275.80;58.30;;;-2.96;53.88;97115.44;4969680;28;19949;-71
2022/03/01 04:44:12;;;;;;;;;;;-3275.90;58.10;;;-2.99;53.79;97110.47;4981921;28;19926;-69
2022/03/01 04:46:38;;;;;;;;;;;-3275.80;58.10;;;-2.98;54.32;97109.53;4965153;28;19933;-70
2022/03/01 04:49:03;;;;;;;;;;;-3275.80;57.90;;;-3.02;54.61;97108.06;4951772;28;19922;-69
2022/03/01 04:51:29;;;;;;;;;;;-3275.80;58.10;;;-3.04;53.79;97104.72;4949544;29;20409;-69
2022/03/01 04:53:55;;;;;;;;;;;-3275.70;58.20;;;-3.05;53.93;97100.50;4966059;28;19977;-69
2022/03/01 04:56:21;;;;;;;;;;;-3275.80;58.20;;;-3.08;54.00;97098.91;4985546;28;19969;-69
2022/03/01 04:58:46;;;;;;;;;;;-3275.80;58.50;;;-3.11;54.31;97105.06;4969344;28;19930;-69
2022/03/01 05:01:12;;;;;;;;;;;-3275.70;58.70;;;-3.12;54.55;97095.69;4969110;28;19977;-69
2022/03/01 05:03:38;;;;;;;;;;;-3275.70;58.70;;;-3.12;54.85;97108.56;4969657;28;19953;-68
2022/03/01 05:06:03;;;;;;;;;;;-3275.70;58.80;;;-3.10;54.88;97117.00;4968933;28;19930;-70
2022/03/01 05:08:30;;;;;;;;;;;-3275.80;58.80;;;-3.10;55.40;97117.00;4969263;28;19930;-69
2022/03/01 05:11:02;;;;;;;;;;;-3275.70;59.00;;;-3.12;54.93;97116.28;4968645;28;19937;-69
2022/03/01 05:13:28;;;;;;;;;;;-3275.70;59.10;;;-3.15;54.80;97113.84;4950093;29;20009;-69
2022/03/01 05:15:54;;;;;;;;;;;-3275.70;59.20;;;-3.14;55.41;97118.09;4950133;28;19919;-69
2022/03/01 05:18:21;;;;;;;;;;;-3275.70;59.50;;;-3.14;54.96;97122.41;4952663;28;19933;-69
2022/03/01 05:20:47;;;;;;;;;;;-3275.60;59.50;;;-3.13;54.97;97121.50;4969042;28;20402;-68
2022/03/01 05:23:13;;;;;;;;;;;-3275.70;59.50;;;-3.13;55.46;97122.31;4952720;28;20013;-68
2022/03/01 05:25:39;;;;;;;;;;;-3275.70;59.40;;;-3.15;54.77;97126.72;4969162;28;19930;-68
2022/03/01 05:28:04;;;;;;;;;;;-3275.70;59.40;;;-3.14;55.88;97130.13;4968200;28;19922;-69
2022/03/01 05:30:30;;;;;;;;;;;-3275.70;60.20;;;-3.14;55.57;97128.38;4968999;28;20293;-68
2022/03/01 05:32:56;;;;;;;;;;;-3275.70;60.30;;;-3.15;56.10;97134.44;4953162;28;19925;-69
2022/03/01 05:35:27;;;;;;;;;;;-3275.70;60.10;;;-3.15;56.24;97134.44;4966900;28;19933;-69
2022/03/01 05:37:54;;;;;;;;;;;-3275.70;60.20;;;-3.14;55.67;97141.25;4968864;28;19930;-69
2022/03/01 05:40:28;;;;;;;;;;;-3275.80;60.10;;;-3.14;55.87;97143.81;4939345;28;19979;-69
2022/03/01 05:42:53;;;;;;;;;;;-3275.70;59.60;;;-3.16;55.35;97143.06;4956381;28;19926;-70
2022/03/01 05:45:20;;;;;;;;;;;-3275.70;59.60;;;-3.15;55.59;97144.75;4972613;28;19976;-69
2022/03/01 05:47:45;;;;;;;;;;;-3275.70;59.50;;;-3.16;54.91;97147.41;4956929;28;19960;-68
2022/03/01 05:50:12;;;;;;;;;;;-3275.70;59.20;;;-3.18;55.00;97146.59;4988766;28;19930;-69
2022/03/01 05:52:37;;;;;;;;;;;-3275.70;59.30;;;-3.20;55.18;97146.69;4988882;28;19922;-69
2022/03/01 05:55:03;;;;;;;;;;;-3275.70;59.50;;;-3.20;55.60;97149.25;4988555;28;19919;-70
2022/03/01 05:57:29;;;;;;;;;;;-3275.70;59.60;;;-3.21;55.55;97147.59;4973549;28;19922;-68
2022/03/01 05:59:55;;;;;;;;;;;-3275.70;59.70;;;-3.19;55.88;97156.06;4974342;28;19941;-68
2022/03/01 06:02:21;;;;;;;;;;;-3275.70;59.60;;;-3.18;55.70;97159.47;4966039;28;20538;-75
2022/03/01 06:04:47;;;;;;;;;;;-3275.70;59.40;;;-3.16;55.64;97167.97;4954222;28;19926;-71
2022/03/01 06:07:12;;;;;;;;;;;-3275.80;59.40;;;-3.19;55.45;97168.94;4971214;28;19929;-66
2022/03/01 06:09:38;;;;;;;;;;;-3275.70;59.60;;;-3.18;56.01;97175.75;4972580;28;19965;-67
2022/03/01 06:12:04;;;;;;;;;;;-3275.80;59.40;;;-3.17;55.80;97177.44;4973752;28;20341;-67
2022/03/01 06:14:30;;;;;;;;;;;-3275.80;59.40;;;-3.16;55.89;97173.97;4971801;28;19919;-66
2022/03/01 06:16:55;;;;;;;;;;;-3275.80;59.30;;;-3.16;55.10;97173.97;4963422;28;19934;-68
2022/03/01 06:19:21;;;;;;;;;;;-3275.80;59.00;;;-3.16;55.55;97167.97;4972457;28;19922;-68
2022/03/01 06:21:47;;;;;;;;;;;-3275.80;59.00;;;-3.14;55.41;97173.88;4972068;28;20353;-69
2022/03/01 06:24:12;;;;;;;;;;;-3275.80;59.20;;;-3.12;56.59;97170.31;4952506;28;19929;-69
2022/03/01 06:26:38;;;;;;;;;;;-3275.90;60.10;;;-3.09;57.43;97170.16;4945676;28;19925;-69
2022/03/01 06:29:04;;;;;;;;;;;-3276.00;60.80;;;-3.05;56.11;97173.38;4988255;28;20278;-67
2022/03/01 06:31:30;;;;;;;;;;;-3276.00;59.60;;;-3.03;55.95;97178.47;4972198;28;19969;-70
2022/03/01 06:33:56;;;;;;;;;;;-3276.00;59.40;;;-3.01;55.95;97185.19;4970473;28;20362;-66
2022/03/01 06:36:23;;;;;;;;;;;-3276.00;59.20;;;-2.98;56.74;97181.63;4966608;28;20187;-67
2022/03/01 06:38:48;;;;;;;;;;;-3276.10;59.90;;;-2.96;56.10;97187.50;4971512;28;19930;-68
2022/03/01 06:41:14;;;;;;;;;;;-3276.10;59.70;;;-2.97;55.80;97186.69;4966771;28;19954;-66
2022/03/01 06:43:40;;;;;;;;;;;-3276.10;59.20;;;-2.95;55.90;97190.00;4951657;29;19926;-67
2022/03/01 06:46:05;;;;;;;;;;;-3276.10;59.10;;;-2.93;55.86;97184.81;4962139;28;20386;-67
2022/03/01 06:48:31;;;;;;;;;;;-3276.20;59.10;;;-2.89;55.95;97176.00;4971260;28;19941;-66
2022/03/01 06:50:57;;;;;;;;;;;-3276.20;59.20;;;-2.83;56.01;97175.69;4968563;28;19918;-66
2022/03/01 06:53:22;;;;;;;;;;;-3276.30;58.80;;;-2.76;55.84;97174.44;4970125;28;19922;-66
2022/03/01 06:55:48;;;;;;;;;;;-3276.50;58.30;;;-2.70;55.73;97181.88;4969963;28;19926;-67
2022/03/01 06:58:14;;;;;;;;;;;-3276.60;58.00;;;-2.60;55.24;97187.34;4956940;28;19927;-67
2022/03/01 07:00:39;;;;;;;;;;;0.00;57.40;;;-2.50;55.49;97193.66;4960084;28;19968;-65
2022/03/01 07:03:05;;;;;;;;;;;0.00;56.80;;;-2.41;55.01;97184.63;4968819;28;19934;-69
2022/03/01 07:05:31;;;;;;;;;;;0.20;56.40;;;-2.28;54.33;97183.03;4986537;28;20177;-68
2022/03/01 07:07:56;;;;;;;;;;;0.40;55.90;;;-2.14;53.87;97190.84;4970611;28;19922;-67
2022/03/01 07:10:22;;;;;;;;;;;0.60;54.80;;;-1.99;53.44;97179.69;4967660;28;20342;-68
2022/03/01 07:12:48;;;;;;;;;;;0.80;54.10;;;-1.83;53.89;97173.66;4935324;29;19923;-67
2022/03/01 07:15:13;;;;;;;;;;;1.00;53.70;;;-1.64;53.17;97182.03;4950316;28;20326;-69
2022/03/01 07:17:39;;;;;;;;;;;1.20;52.50;;;-1.44;52.68;97175.72;4969648;28;19923;-67
2022/03/01 07:20:07;;;;;;;;;;;1.60;51.50;;;-1.27;52.25;97179.00;4969217;28;19932;-67
2022/03/01 07:22:33;;;;;;;;;;;1.80;51.50;;;-1.10;52.01;97175.44;4952617;28;20278;-68
2022/03/01 07:24:58;;;;;;;;;;;2.10;50.50;;;-0.88;51.49;97181.91;4969963;28;19937;-68
2022/03/01 07:27:24;;;;;;;;;;;2.40;49.40;;;-0.68;51.26;97178.91;4970986;28;19930;-69
2022/03/01 07:29:50;;;;;;;;;;;2.60;49.00;;;-0.47;50.33;97175.03;4986359;28;20505;-66
2022/03/01 07:32:15;;;;;;;;;;;2.90;47.50;;;-0.27;50.57;97173.78;4959955;28;19997;-68
2022/03/01 07:34:42;;;;;;;;;;;3.20;47.30;;;-0.08;49.83;97171.72;4952682;28;19968;-70
2022/03/01 07:37:08;;;;;;;;;;;3.40;46.10;;;0.16;48.80;97173.66;4969437;28;20017;-70
2022/03/01 07:39:33;;;;;;;;;;;3.80;45.10;;;0.36;48.05;97167.19;4983658;28;19921;-70
2022/03/01 07:41:59;;;;;;;;;;;4.10;44.00;;;0.63;48.61;97161.97;4971211;28;19922;-66
2022/03/01 07:44:25;;;;;;;;;;;4.50;43.40;;;0.85;46.71;97167.38;4968106;28;20525;-66
2022/03/01 07:46:50;;;;;;;;;;;4.80;41.70;;;1.08;46.84;97158.88;4970031;28;19922;-67
2022/03/01 07:49:16;;;;;;;;;;;5.20;41.00;;;1.26;45.27;97158.56;4968061;28;19957;-67
2022/03/01 07:51:42;;;;;;;;;;;5.60;39.40;;;1.41;45.65;97160.94;4970375;28;19926;-67
2022/03/01 07:54:07;;;;;;;;;;;5.70;38.60;;;1.56;45.38;97159.03;4935389;28;20613;-66
2022/03/01 07:56:33;;;;;;;;;;;6.10;38.50;;;1.77;45.20;97162.72;4950628;28;19919;-68
2022/03/01 07:58:59;;;;;;;;;;;6.30;37.60;;;2.03;45.65;97163.44;4969132;28;19922;-68
2022/03/01 08:01:24;;;;;;;;;;;6.90;37.60;;;2.30;44.72;97170.19;4971057;28;19930;-69
2022/03/01 08:03:50;;;;;;;;;;;7.30;36.20;;;2.46;43.99;97165.53;4968693;28;20274;-69
2022/03/01 08:06:16;;;;;;;;;;;7.40;35.30;;;2.68;43.17;97162.16;4985597;28;19922;-69
2022/03/01 08:08:42;;;;;;;;;;;7.80;34.50;;;2.88;43.63;97166.72;4953939;28;19922;-69
2022/03/01 08:11:07;;;;;;;;;;;8.20;34.50;;;3.08;42.45;97173.84;4953193;28;19922;-68
2022/03/01 08:13:33;;;;;;;;;;;8.20;33.40;;;3.32;42.24;97171.13;4968515;28;19922;-66
2022/03/01 08:15:59;;;;;;;;;;;8.70;32.90;;;3.55;41.99;97174.56;4968905;28;19958;-66
2022/03/01 08:18:25;;;;;;;;;;;9.10;32.10;;;3.72;41.45;97172.44;4969398;28;20016;-67
2022/03/01 08:20:50;;;;;;;;;;;9.20;32.00;;;3.92;41.19;97176.91;4985841;28;19981;-66
2022/03/01 08:23:16;;;;;;;;;;;9.60;31.30;;;4.14;40.77;97176.03;4951956;28;19927;-65
2022/03/01 08:25:42;;;;;;;;;;;9.70;30.50;;;4.37;40.36;97179.38;4952977;28;19926;-66
2022/03/01 08:28:08;;;;;;;;;;;10.10;30.20;;;4.51;40.28;97173.88;4953295;28;19926;-66
2022/03/01 08:30:35;;;;;;;;;;;10.20;29.90;;;4.72;40.30;97163.47;4969102;28;19922;-67
2022/03/01 08:33:02;;;;;;;;;;;10.60;29.90;;;4.97;40.43;97177.91;4966514;28;20082;-70
2022/03/01 08:35:28;;;;;;;;;;;10.90;29.30;;;5.25;40.13;97177.25;4964147;28;19930;-66
2022/03/01 08:37:54;;;;;;;;;;;11.20;29.00;;;5.46;40.45;97180.66;4984358;28;19929;-66
2022/03/01 08:40:21;;;;;;;;;;;11.40;28.90;;;5.69;39.52;97175.25;4970499;28;19926;-66
2022/03/01 08:42:46;;;;;;;;;;;11.60;28.40;;;5.96;39.28;97178.13;4968798;28;20053;-69
2022/03/01 08:45:14;;;;;;;;;;;12.10;28.00;;;6.22;39.24;97177.63;4978520;28;19926;-66
2022/03/01 08:47:40;;;;;;;;;;;12.10;27.60;;;6.42;39.22;97168.84;4968882;28;20360;-67
2022/03/01 08:50:06;;;;;;;;;;;12.30;27.30;;;6.70;38.54;97161.97;4965972;28;19952;-68
2022/03/01 08:52:32;;;;;;;;;;;12.60;26.80;;;6.98;37.64;97155.84;4951843;28;19926;-67
2022/03/01 08:54:57;;;;;;;;;;;12.80;26.60;;;7.30;37.56;97159.94;4966957;28;19929;-69
2022/03/01 08:57:23;;;;;;;;;;;13.10;25.90;;;7.59;37.07;97149.34;4967103;28;19922;-66
2022/03/01 08:59:49;;;;;;;;;;;13.40;25.70;;;7.90;37.30;97147.25;4970065;28;20357;-69
2022/03/01 09:02:17;;;;;;;;;;;13.90;25.20;;;8.09;35.90;97152.38;4966361;28;19932;-69
2022/03/01 09:04:44;;;;;;;;;;;13.80;24.70;;;8.30;36.29;97149.50;4967660;28;19926;-69
2022/03/01 09:07:09;;;;;;;;;;;14.10;24.80;;;8.60;35.94;97145.72;4950555;28;19922;-70
2022/03/01 09:09:35;;;;;;;;;;;14.50;24.70;;;8.91;35.85;97138.25;4965013;28;19965;-69
2022/03/01 09:12:01;;;;;;;;;;;14.80;24.30;;;9.17;35.11;97144.34;4964155;28;19962;-70
2022/03/01 09:14:26;;;;;;;;;;;14.80;23.80;;;9.44;35.41;97135.47;4932315;28;19971;-66
2022/03/01 09:16:52;;;;;;;;;;;15.00;23.80;;;9.66;34.67;97130.63;4951757;28;19922;-64
2022/03/01 09:19:17;;;;;;;;;;;15.30;23.50;;;9.94;34.05;97123.34;4966780;28;19941;-67
2022/03/01 09:21:43;;;;;;;;;;;15.60;23.00;;;10.08;34.94;97130.63;4950105;28;19972;-65
2022/03/01 09:24:09;;;;;;;;;;;15.50;22.70;;;10.24;33.39;97125.44;4967074;28;20309;-68
2022/03/01 09:26:35;;;;;;;;;;;15.60;23.10;;;10.36;33.94;97125.94;4955782;28;19945;-69
2022/03/01 09:29:00;;;;;;;;;;;15.70;22.60;;;10.45;33.26;97109.22;4948280;28;20039;-73
2022/03/01 09:31:26;;;;;;;;;;;15.80;22.50;;;10.65;33.36;97117.59;4964301;28;19933;-65
2022/03/01 09:33:51;;;;;;;;;;;16.30;22.50;;;10.77;32.77;97113.63;4966158;28;20346;-63
2022/03/01 09:36:17;;;;;;;;;;;16.40;22.00;;;11.02;33.67;97101.28;4972112;28;19929;-63
2022/03/01 09:38:43;;;;;;;;;;;17.00;21.70;;;11.19;32.76;97102.06;4968134;28;19923;-65
2022/03/01 09:41:10;;;;;;;;;;;17.20;21.40;;;11.37;33.10;97100.06;4966546;28;20297;-68
2022/03/01 09:43:36;;;;;;;;;;;17.70;20.70;;;11.43;31.93;97094.09;4951070;28;19946;-64
2022/03/01 09:46:03;;;;;;;;;;;18.00;20.40;;;11.59;33.06;97094.06;4967280;28;20300;-63
2022/03/01 09:48:28;;;;;;;;;;;18.70;20.40;;;11.85;31.81;97087.72;4966583;28;19977;-62
2022/03/01 09:50:54;;;;;;;;;;;19.30;19.70;;;12.06;31.96;97085.28;4982770;28;20314;-62
2022/03/01 09:53:20;;;;;;;;;;;20.00;18.60;;;12.24;31.83;97083.19;4967387;28;21565;-63
2022/03/01 09:55:45;;;;;;;;;;;20.60;18.40;;;12.51;30.66;97081.03;4967281;28;19922;-62
2022/03/01 09:58:11;;;;;;;;;;;21.10;17.70;;;12.82;31.06;97084.38;4983606;28;20381;-62
2022/03/01 10:00:37;;;;;;;;;;;21.90;16.80;;;13.12;30.63;97076.50;4951916;28;19919;-61
2022/03/01 10:03:02;;;;;;;;;;;22.90;16.20;;;13.42;31.51;97091.41;4967568;28;19949;-62
2022/03/01 10:05:34;;;;;;;;;;;23.50;15.90;;;14.06;31.56;97075.75;4945767;28;20247;-61
2022/03/01 10:08:11;;;;;;;;;;;24.40;15.40;;;14.67;31.51;97068.22;4951529;28;20400;-64
2022/03/01 10:10:39;;;;;;;;;;;25.10;14.60;;;15.15;30.70;97070.22;4955864;28;19926;-68
2022/03/01 10:13:04;;;;;;;;;;;26.00;14.60;;;15.74;30.14;97075.88;4966499;28;19922;-68
2022/03/01 10:15:31;;;;;;;;;;;26.90;13.70;;;16.25;30.20;97067.47;4967177;28;20567;-67
2022/03/01 10:17:57;;;;;;;;;;;27.80;13.10;;;16.76;29.64;97064.34;4981830;28;19937;-68
2022/03/01 10:20:23;;;;;;;;;;;28.40;12.90;;;17.24;29.45;97074.72;4967317;28;19926;-70
2022/03/01 10:22:49;;;;;;;;;;;29.00;12.10;;;17.68;29.59;97069.53;4966939;28;19930;-71
2022/03/01 10:25:16;;;;;;;;;;;29.70;11.80;;;17.98;29.80;97066.34;4964924;28;19941;-66
2022/03/01 10:27:47;;;;;;;;;;;30.40;11.50;;;18.23;28.67;97075.22;4966817;28;19925;-68
2022/03/01 10:30:12;;;;;;;;;;;30.30;11.70;;;18.63;29.17;97062.53;4951231;28;19923;-66
2022/03/01 10:32:38;;;;;;;;;;;30.60;11.30;;;19.04;27.64;97058.50;4969685;28;19926;-68
2022/03/01 10:35:06;;;;;;;;;;;31.50;10.90;;;19.41;27.56;97058.56;4952929;28;19996;-69
2022/03/01 10:37:37;;;;;;;;;;;32.00;10.60;;;19.64;28.78;97052.59;4972521;28;21380;-71
2022/03/01 10:40:15;;;;;;;;;;;32.10;10.40;;;19.80;28.82;97052.00;4983480;28;19964;-70
2022/03/01 10:42:41;;;;;;;;;;;32.50;10.60;;;20.00;28.90;97031.19;4970489;28;20013;-71
2022/03/01 10:45:09;;;;;;;;;;;32.70;10.30;;;20.31;28.49;97032.81;4967751;28;19930;-73
2022/03/01 10:47:35;;;;;;;;;;;33.10;9.80;;;20.62;26.98;97034.47;4968081;28;20494;-71
2022/03/01 10:50:06;;;;;;;;;;;33.10;10.00;;;20.95;25.56;97031.22;4970774;28;19922;-71
2022/03/01 10:52:37;;;;;;;;;;;33.50;9.50;;;21.12;25.75;97018.00;4971534;28;19929;-70
2022/03/01 10:55:03;;;;;;;;;;;33.60;9.40;;;21.61;26.78;97008.63;4967696;28;19930;-64
2022/03/01 10:57:29;;;;;;;;;;;34.00;9.30;;;21.90;25.78;96998.75;4971756;28;20336;-66
2022/03/01 10:59:54;;;;;;;;;;;34.70;8.90;;;22.30;26.91;96992.56;4964225;28;19948;-69
2022/03/01 11:02:20;;;;;;;;;;;35.00;8.60;;;22.36;22.90;96996.97;4950083;28;19945;-70
2022/03/01 11:04:46;;;;;;;;;;;34.60;8.80;;;22.35;27.65;96998.00;4967309;28;19988;-69
2022/03/01 11:07:12;;;;;;;;;;;34.50;8.70;;;22.44;24.80;96983.19;4985503;28;19922;-70
2022/03/01 11:09:38;;;;;;;;;;;35.00;8.50;;;22.58;23.32;96981.78;4970492;28;19941;-71